createdAt,value
2017-09-05T00:00:51.951Z,983.37
2017-09-05T00:01:51.995Z,983.38
2017-09-05T00:02:52.041Z,983.40
2017-09-05T00:03:52.082Z,983.40
2017-09-05T00:04:52.126Z,983.40
2017-09-05T00:05:52.169Z,983.39
2017-09-05T00:06:52.212Z,983.41
2017-09-05T00:07:52.257Z,983.39
2017-09-05T00:08:52.303Z,983.38
2017-09-05T00:09:52.350Z,983.37
2017-09-05T00:10:52.391Z,983.36
2017-09-05T00:11:52.433Z,983.37
2017-09-05T00:12:52.477Z,983.37
2017-09-05T00:13:52.523Z,983.36
2017-09-05T00:14:52.568Z,983.40
2017-09-05T00:15:52.610Z,983.41
2017-09-05T00:16:52.653Z,983.40
2017-09-05T00:17:52.696Z,983.42
2017-09-05T00:18:52.740Z,983.39
2017-09-05T00:19:52.784Z,983.41
2017-09-05T00:20:52.834Z,983.40
2017-09-05T00:21:52.872Z,983.40
2017-09-05T00:22:52.916Z,983.38
2017-09-05T00:23:52.960Z,983.38
2017-09-05T00:24:53.005Z,983.39
2017-09-05T00:25:53.047Z,983.40
2017-09-05T00:26:53.093Z,983.34
2017-09-05T00:27:53.139Z,983.35
2017-09-05T00:28:53.182Z,983.38
2017-09-05T00:29:53.223Z,983.33
2017-09-05T00:30:53.266Z,983.36
2017-09-05T00:31:53.312Z,983.36
2017-09-05T00:32:53.355Z,983.34
2017-09-05T00:33:53.399Z,983.33
2017-09-05T00:34:53.443Z,983.30
2017-09-05T00:35:53.489Z,983.31
2017-09-05T00:36:53.534Z,983.28
2017-09-05T00:37:53.574Z,983.29
2017-09-05T00:38:53.617Z,983.27
2017-09-05T00:39:53.665Z,983.29
2017-09-05T00:40:53.706Z,983.29
2017-09-05T00:41:53.749Z,983.27
2017-09-05T00:42:53.793Z,983.26
2017-09-05T00:43:53.836Z,983.26
2017-09-05T00:44:53.880Z,983.30
2017-09-05T00:45:53.926Z,983.31
2017-09-05T00:46:53.970Z,983.28
2017-09-05T00:47:54.012Z,983.31
2017-09-05T00:48:54.057Z,983.26
2017-09-05T00:49:54.099Z,983.31
2017-09-05T00:50:54.149Z,983.30
2017-09-05T00:51:54.187Z,983.29
2017-09-05T00:52:54.238Z,983.26
2017-09-05T00:53:54.277Z,983.28
2017-09-05T00:54:54.319Z,983.28
2017-09-05T00:55:54.364Z,983.27
2017-09-05T00:56:54.409Z,983.23
2017-09-05T00:57:54.451Z,983.21
2017-09-05T00:58:54.494Z,983.27
2017-09-05T00:59:54.540Z,983.27
2017-09-05T01:00:54.583Z,983.27
2017-09-05T01:01:54.627Z,983.24
2017-09-05T01:02:54.671Z,983.22
2017-09-05T01:03:54.718Z,983.23
2017-09-05T01:04:54.758Z,983.25
2017-09-05T01:05:54.803Z,983.21
2017-09-05T01:06:54.844Z,983.21
2017-09-05T01:07:54.895Z,983.23
2017-09-05T01:08:54.935Z,983.26
2017-09-05T01:09:54.976Z,983.22
2017-09-05T01:10:55.020Z,983.23
2017-09-05T01:11:55.066Z,983.19
2017-09-05T01:12:55.108Z,983.22
2017-09-05T01:13:55.152Z,983.21
2017-09-05T01:14:55.200Z,983.20
2017-09-05T01:15:55.240Z,983.20
2017-09-05T01:16:55.284Z,983.16
2017-09-05T01:17:55.328Z,983.18
2017-09-05T01:18:55.371Z,983.19
2017-09-05T01:19:55.415Z,983.16
2017-09-05T01:20:55.458Z,983.15
2017-09-05T01:21:55.503Z,983.14
2017-09-05T01:22:55.546Z,983.13
2017-09-05T01:23:55.590Z,983.10
2017-09-05T01:24:55.635Z,983.12
2017-09-05T01:25:55.680Z,983.15
2017-09-05T01:26:55.724Z,983.15
2017-09-05T01:27:55.770Z,983.18
2017-09-05T01:28:55.810Z,983.13
2017-09-05T01:29:55.852Z,983.15
2017-09-05T01:30:55.897Z,983.10
2017-09-05T01:31:55.941Z,983.12
2017-09-05T01:32:55.986Z,983.13
2017-09-05T01:33:56.028Z,983.09
2017-09-05T01:34:56.072Z,983.13
2017-09-05T01:35:56.117Z,983.08
2017-09-05T01:36:56.162Z,983.11
2017-09-05T01:37:56.202Z,983.07
2017-09-05T01:38:56.247Z,983.05
2017-09-05T01:39:56.291Z,983.10
2017-09-05T01:40:56.334Z,983.08
2017-09-05T01:41:56.378Z,983.06
2017-09-05T01:42:56.423Z,983.10
2017-09-05T01:43:56.466Z,983.07
2017-09-05T01:44:56.510Z,983.06
2017-09-05T01:45:56.554Z,983.03
2017-09-05T01:46:56.595Z,983.03
2017-09-05T01:47:56.644Z,983.08
2017-09-05T01:48:56.688Z,983.03
2017-09-05T01:49:56.728Z,983.06
2017-09-05T01:50:56.774Z,983.06
2017-09-05T01:51:56.815Z,983.02
2017-09-05T01:52:56.861Z,983.02
2017-09-05T01:53:56.905Z,983.03
2017-09-05T01:54:56.946Z,982.99
2017-09-05T01:55:56.991Z,982.99
2017-09-05T01:56:57.035Z,982.95
2017-09-05T01:57:57.079Z,982.95
2017-09-05T01:58:57.125Z,982.93
2017-09-05T01:59:57.166Z,982.96
2017-09-05T02:00:57.211Z,982.98
2017-09-05T02:01:57.254Z,982.96
2017-09-05T02:02:57.297Z,982.95
2017-09-05T02:03:57.342Z,982.92
2017-09-05T02:04:57.384Z,982.89
2017-09-05T02:05:57.432Z,982.89
2017-09-05T02:06:57.472Z,982.87
2017-09-05T02:07:57.519Z,982.88
2017-09-05T02:08:57.560Z,982.89
2017-09-05T02:09:57.611Z,982.94
2017-09-05T02:10:57.645Z,982.93
2017-09-05T02:11:57.691Z,982.93
2017-09-05T02:12:57.734Z,982.93
2017-09-05T02:13:57.779Z,982.89
2017-09-05T02:14:57.823Z,982.89
2017-09-05T02:15:57.864Z,982.86
2017-09-05T02:16:57.909Z,982.89
2017-09-05T02:17:57.952Z,982.93
2017-09-05T02:18:57.998Z,982.87
2017-09-05T02:19:58.042Z,982.89
2017-09-05T02:20:58.091Z,982.91
2017-09-05T02:21:58.126Z,982.94
2017-09-05T02:22:58.170Z,982.92
2017-09-05T02:23:58.215Z,982.95
2017-09-05T02:24:58.260Z,982.95
2017-09-05T02:25:58.303Z,982.91
2017-09-05T02:26:58.344Z,982.85
2017-09-05T02:27:58.390Z,982.93
2017-09-05T02:28:58.437Z,982.93
2017-09-05T02:29:58.480Z,982.92
2017-09-05T02:30:58.521Z,982.92
2017-09-05T02:31:58.566Z,982.93
2017-09-05T02:32:58.608Z,982.94
2017-09-05T02:33:58.665Z,982.91
2017-09-05T02:34:58.695Z,982.93
2017-09-05T02:35:58.739Z,982.97
2017-09-05T02:36:58.783Z,982.94
2017-09-05T02:37:58.826Z,982.93
2017-09-05T02:38:58.869Z,982.94
2017-09-05T02:39:58.913Z,982.97
2017-09-05T02:40:58.963Z,982.93
2017-09-05T02:41:59.006Z,982.97
2017-09-05T02:42:59.045Z,982.96
2017-09-05T02:43:59.088Z,982.95
2017-09-05T02:44:59.138Z,982.96
2017-09-05T02:45:59.175Z,982.96
2017-09-05T02:46:59.220Z,982.94
2017-09-05T02:47:59.263Z,982.94
2017-09-05T02:48:59.306Z,982.93
2017-09-05T02:49:59.354Z,982.94
2017-09-05T02:50:59.393Z,982.92
2017-09-05T02:51:59.437Z,982.93
2017-09-05T02:52:59.482Z,982.93
2017-09-05T02:53:59.526Z,982.91
2017-09-05T02:54:59.566Z,982.88
2017-09-05T02:55:59.612Z,982.91
2017-09-05T02:56:59.654Z,982.85
2017-09-05T02:57:59.697Z,982.83
2017-09-05T02:58:59.743Z,982.83
2017-09-05T02:59:59.788Z,982.83
2017-09-05T03:00:59.832Z,982.83
2017-09-05T03:01:59.873Z,982.86
2017-09-05T03:02:59.917Z,982.88
2017-09-05T03:03:59.961Z,982.88
2017-09-05T03:05:00.006Z,982.88
2017-09-05T03:06:00.048Z,982.89
2017-09-05T03:07:00.094Z,982.91
2017-09-05T03:08:00.142Z,982.94
2017-09-05T03:09:00.181Z,982.93
2017-09-05T03:10:00.224Z,982.94
2017-09-05T03:11:00.267Z,982.94
2017-09-05T03:12:00.310Z,982.94
2017-09-05T03:13:00.352Z,982.95
2017-09-05T03:14:00.395Z,982.99
2017-09-05T03:15:00.439Z,982.97
2017-09-05T03:16:00.487Z,982.95
2017-09-05T03:17:00.529Z,982.98
2017-09-05T03:18:00.570Z,983.01
2017-09-05T03:19:00.617Z,982.99
2017-09-05T03:20:00.659Z,983.01
2017-09-05T03:21:00.704Z,982.99
2017-09-05T03:22:00.746Z,982.96
2017-09-05T03:23:00.788Z,983.02
2017-09-05T03:24:00.832Z,983.03
2017-09-05T03:25:00.876Z,983.03
2017-09-05T03:26:00.918Z,983.04
2017-09-05T03:27:00.962Z,983.00
2017-09-05T03:28:01.013Z,983.02
2017-09-05T03:29:01.050Z,983.01
2017-09-05T03:30:01.094Z,983.03
2017-09-05T03:31:01.138Z,983.05
2017-09-05T03:32:01.181Z,982.98
2017-09-05T03:33:01.224Z,983.03
2017-09-05T03:34:01.268Z,983.01
2017-09-05T03:35:01.311Z,983.01
2017-09-05T03:36:01.354Z,982.97
2017-09-05T03:37:01.397Z,982.99
2017-09-05T03:38:01.441Z,983.03
2017-09-05T03:39:01.488Z,983.00
2017-09-05T03:40:01.530Z,983.05
2017-09-05T03:41:01.570Z,983.00
2017-09-05T03:42:01.617Z,982.98
2017-09-05T03:43:01.659Z,983.00
2017-09-05T03:44:01.704Z,983.00
2017-09-05T03:45:01.746Z,983.00
2017-09-05T03:46:01.790Z,982.97
2017-09-05T03:47:01.834Z,982.99
2017-09-05T03:48:01.880Z,982.95
2017-09-05T03:49:01.921Z,982.97
2017-09-05T03:50:01.966Z,982.95
2017-09-05T03:51:02.008Z,982.93
2017-09-05T03:52:02.053Z,982.95
2017-09-05T03:53:02.095Z,982.90
2017-09-05T03:54:02.138Z,982.90
2017-09-05T03:55:02.183Z,982.89
2017-09-05T03:56:02.225Z,982.95
2017-09-05T03:57:02.272Z,982.92
2017-09-05T03:58:02.310Z,982.87
2017-09-05T03:59:02.355Z,982.95
2017-09-05T04:00:02.399Z,982.92
2017-09-05T04:01:02.443Z,982.88
2017-09-05T04:02:02.486Z,982.87
2017-09-05T04:03:02.533Z,982.88
2017-09-05T04:04:02.573Z,982.90
2017-09-05T04:05:02.651Z,982.87
2017-09-05T04:06:02.663Z,982.89
2017-09-05T04:07:02.703Z,982.86
2017-09-05T04:08:02.749Z,982.86
2017-09-05T04:09:02.792Z,982.86
2017-09-05T04:10:02.834Z,982.85
2017-09-05T04:11:02.878Z,982.87
2017-09-05T04:12:02.921Z,982.89
2017-09-05T04:13:02.965Z,982.89
2017-09-05T04:14:03.008Z,982.91
2017-09-05T04:15:03.056Z,982.91
2017-09-05T04:16:03.095Z,982.92
2017-09-05T04:17:03.140Z,982.84
2017-09-05T04:18:03.182Z,982.88
2017-09-05T04:19:03.236Z,982.88
2017-09-05T04:20:03.269Z,982.82
2017-09-05T04:21:03.312Z,982.82
2017-09-05T04:22:03.357Z,982.82
2017-09-05T04:23:03.398Z,982.88
2017-09-05T04:24:03.445Z,982.80
2017-09-05T04:25:03.487Z,982.78
2017-09-05T04:26:03.531Z,982.78
2017-09-05T04:27:03.574Z,982.82
2017-09-05T04:28:03.619Z,982.84
2017-09-05T04:29:03.659Z,982.89
2017-09-05T04:30:03.702Z,982.85
2017-09-05T04:31:03.748Z,982.92
2017-09-05T04:32:03.791Z,982.90
2017-09-05T04:33:03.838Z,982.89
2017-09-05T04:34:03.880Z,982.91
2017-09-05T04:35:03.921Z,982.95
2017-09-05T04:36:03.966Z,982.97
2017-09-05T04:37:04.013Z,982.98
2017-09-05T04:38:04.054Z,982.94
2017-09-05T04:39:04.115Z,982.97
2017-09-05T04:40:04.148Z,982.93
2017-09-05T04:41:04.351Z,982.96
2017-09-05T04:42:04.232Z,982.98
2017-09-05T04:43:04.274Z,983.00
2017-09-05T04:44:04.313Z,982.98
2017-09-05T04:45:04.358Z,983.02
2017-09-05T04:46:04.400Z,983.02
2017-09-05T04:47:04.444Z,983.05
2017-09-05T04:48:04.488Z,983.00
2017-09-05T04:49:04.533Z,983.02
2017-09-05T04:50:04.577Z,983.03
2017-09-05T04:51:04.622Z,983.02
2017-09-05T04:52:04.662Z,983.04
2017-09-05T04:53:04.706Z,983.01
2017-09-05T04:54:04.751Z,983.00
2017-09-05T04:55:04.793Z,983.04
2017-09-05T04:56:04.834Z,983.03
2017-09-05T04:57:04.882Z,983.06
2017-09-05T04:58:04.923Z,983.05
2017-09-05T04:59:04.967Z,983.07
2017-09-05T05:00:05.014Z,983.09
2017-09-05T05:01:05.060Z,983.08
2017-09-05T05:02:05.124Z,983.10
2017-09-05T05:03:05.139Z,983.14
2017-09-05T05:04:05.183Z,983.15
2017-09-05T05:05:05.239Z,983.17
2017-09-05T05:06:05.269Z,983.21
2017-09-05T05:07:05.317Z,983.23
2017-09-05T05:08:05.412Z,983.19
2017-09-05T05:09:05.402Z,983.23
2017-09-05T05:10:05.450Z,983.21
2017-09-05T05:11:05.488Z,983.20
2017-09-05T05:12:05.535Z,983.19
2017-09-05T05:13:05.592Z,983.20
2017-09-05T05:14:05.627Z,983.22
2017-09-05T05:15:05.683Z,983.22
2017-09-05T05:16:05.807Z,983.25
2017-09-05T05:17:05.865Z,983.22
2017-09-05T05:18:05.864Z,983.24
2017-09-05T05:19:05.896Z,983.20
2017-09-05T05:20:05.890Z,983.24
2017-09-05T05:21:05.925Z,983.25
2017-09-05T05:22:05.961Z,983.25
2017-09-05T05:23:06.046Z,983.26
2017-09-05T05:24:06.048Z,983.26
2017-09-05T05:25:06.091Z,983.25
2017-09-05T05:26:06.134Z,983.29
2017-09-05T05:27:06.179Z,983.33
2017-09-05T05:28:06.222Z,983.29
2017-09-05T05:29:06.264Z,983.28
2017-09-05T05:30:06.312Z,983.30
2017-09-05T05:31:06.354Z,983.29
2017-09-05T05:32:06.398Z,983.26
2017-09-05T05:33:06.439Z,983.29
2017-09-05T05:34:06.483Z,983.30
2017-09-05T05:35:06.525Z,983.28
2017-09-05T05:36:06.569Z,983.31
2017-09-05T05:37:06.628Z,983.25
2017-09-05T05:38:06.656Z,983.28
2017-09-05T05:39:06.698Z,983.33
2017-09-05T05:40:06.749Z,983.29
2017-09-05T05:41:06.790Z,983.27
2017-09-05T05:42:06.831Z,983.29
2017-09-05T05:43:06.872Z,983.24
2017-09-05T05:44:06.918Z,983.26
2017-09-05T05:45:06.962Z,983.29
2017-09-05T05:46:07.008Z,983.26
2017-09-05T05:47:07.046Z,983.26
2017-09-05T05:48:07.091Z,983.25
2017-09-05T05:49:07.133Z,983.33
2017-09-05T05:50:07.186Z,983.32
2017-09-05T05:51:07.222Z,983.31
2017-09-05T05:52:07.291Z,983.35
2017-09-05T05:53:07.308Z,983.31
2017-09-05T05:54:07.367Z,983.34
2017-09-05T05:55:07.400Z,983.32
2017-09-05T05:56:07.441Z,983.33
2017-09-05T05:57:07.488Z,983.37
2017-09-05T05:58:07.525Z,983.31
2017-09-05T05:59:07.566Z,983.30
2017-09-05T06:00:07.610Z,983.35
2017-09-05T06:01:07.656Z,983.34
2017-09-05T06:02:07.696Z,983.34
2017-09-05T06:03:07.737Z,983.34
2017-09-05T06:04:07.792Z,983.37
2017-09-05T06:05:07.840Z,983.36
2017-09-05T06:06:07.870Z,983.38
2017-09-05T06:07:07.986Z,983.34
2017-09-05T06:08:07.956Z,983.34
2017-09-05T06:09:08.003Z,983.35
2017-09-05T06:10:08.042Z,983.31
2017-09-05T06:11:08.087Z,983.40
2017-09-05T06:12:08.131Z,983.37
2017-09-05T06:13:08.183Z,983.42
2017-09-05T06:14:08.217Z,983.40
2017-09-05T06:15:08.262Z,983.42
2017-09-05T06:16:08.336Z,983.43
2017-09-05T06:17:09.043Z,983.42
2017-09-05T06:18:08.393Z,983.39
2017-09-05T06:19:08.564Z,983.44
2017-09-05T06:20:08.514Z,983.40
2017-09-05T06:21:08.602Z,983.44
2017-09-05T06:22:08.568Z,983.40
2017-09-05T06:23:08.618Z,983.41
2017-09-05T06:24:08.652Z,983.41
2017-09-05T06:25:08.725Z,983.41
2017-09-05T06:26:08.740Z,983.42
2017-09-05T06:27:08.782Z,983.39
2017-09-05T06:28:08.828Z,983.36
2017-09-05T06:29:08.956Z,983.41
2017-09-05T06:30:08.921Z,983.43
2017-09-05T06:31:08.959Z,983.44
2017-09-05T06:32:09.050Z,983.47
2017-09-05T06:33:09.048Z,983.40
2017-09-05T06:34:09.090Z,983.44
2017-09-05T06:35:09.138Z,983.46
2017-09-05T06:36:09.253Z,983.44
2017-09-05T06:37:09.291Z,983.45
2017-09-05T06:38:09.267Z,983.47
2017-09-05T06:39:09.313Z,983.47
2017-09-05T06:40:09.356Z,983.48
2017-09-05T06:41:09.413Z,983.44
2017-09-05T06:42:09.445Z,983.43
2017-09-05T06:43:09.490Z,983.41
2017-09-05T06:44:09.564Z,983.44
2017-09-05T06:45:09.617Z,983.43
2017-09-05T06:46:09.627Z,983.46
2017-09-05T06:47:09.665Z,983.44
2017-09-05T06:48:09.714Z,983.45
2017-09-05T06:49:09.766Z,983.44
2017-09-05T06:50:09.801Z,983.45
2017-09-05T06:51:09.858Z,983.50
2017-09-05T06:52:09.919Z,983.49
2017-09-05T06:53:10.027Z,983.51
2017-09-05T06:54:10.056Z,983.48
2017-09-05T06:55:10.026Z,983.50
2017-09-05T06:56:10.066Z,983.49
2017-09-05T06:57:10.110Z,983.54
2017-09-05T06:58:10.152Z,983.53
2017-09-05T06:59:10.221Z,983.48
2017-09-05T07:00:10.242Z,983.54
2017-09-05T07:01:10.314Z,983.53
2017-09-05T07:02:10.334Z,983.50
2017-09-05T07:03:10.376Z,983.54
2017-09-05T07:04:10.425Z,983.54
2017-09-05T07:05:10.465Z,983.53
2017-09-05T07:06:10.511Z,983.51
2017-09-05T07:07:10.554Z,983.55
2017-09-05T07:08:10.600Z,983.52
2017-09-05T07:09:10.647Z,983.54
2017-09-05T07:10:10.703Z,983.50
2017-09-05T07:11:10.735Z,983.51
2017-09-05T07:12:10.806Z,983.50
2017-09-05T07:13:10.826Z,983.52
2017-09-05T07:14:10.869Z,983.52
2017-09-05T07:15:10.913Z,983.50
2017-09-05T07:16:11.014Z,983.53
2017-09-05T07:17:11.006Z,983.52
2017-09-05T07:18:11.050Z,983.52
2017-09-05T07:19:11.093Z,983.55
2017-09-05T07:20:11.139Z,983.59
2017-09-05T07:21:11.217Z,983.61
2017-09-05T07:22:11.297Z,983.58
2017-09-05T07:23:11.276Z,983.54
2017-09-05T07:24:11.319Z,983.56
2017-09-05T07:25:11.365Z,983.60
2017-09-05T07:26:11.410Z,983.57
2017-09-05T07:27:11.455Z,983.60
2017-09-05T07:28:11.505Z,983.58
2017-09-05T07:29:11.545Z,983.61
2017-09-05T07:30:11.602Z,983.58
2017-09-05T07:31:11.733Z,983.56
2017-09-05T07:32:11.690Z,983.57
2017-09-05T07:33:11.743Z,983.55
2017-09-05T07:34:11.820Z,983.59
2017-09-05T07:35:11.905Z,983.52
2017-09-05T07:36:11.867Z,983.51
2017-09-05T07:37:11.959Z,983.54
2017-09-05T07:38:11.980Z,983.53
2017-09-05T07:39:12.007Z,983.55
2017-09-05T07:40:12.069Z,983.53
2017-09-05T07:41:12.106Z,983.52
2017-09-05T07:42:12.139Z,983.53
2017-09-05T07:43:12.185Z,983.54
2017-09-05T07:44:12.327Z,983.53
2017-09-05T07:45:12.343Z,983.51
2017-09-05T07:46:12.321Z,983.55
2017-09-05T07:47:12.409Z,983.55
2017-09-05T07:48:12.418Z,983.55
2017-09-05T07:49:12.464Z,983.57
2017-09-05T07:50:12.503Z,983.58
2017-09-05T07:51:12.612Z,983.60
2017-09-05T07:52:12.624Z,983.57
2017-09-05T07:53:12.681Z,983.57
2017-09-05T07:54:12.685Z,983.56
2017-09-05T07:55:12.730Z,983.56
2017-09-05T07:56:12.823Z,983.57
2017-09-05T07:57:12.882Z,983.57
2017-09-05T07:58:12.896Z,983.56
2017-09-05T07:59:12.912Z,983.60
2017-09-05T08:00:12.959Z,983.54
2017-09-05T08:01:13.014Z,983.59
2017-09-05T08:02:13.130Z,983.53
2017-09-05T08:03:13.109Z,983.55
2017-09-05T08:04:13.151Z,983.55
2017-09-05T08:05:13.192Z,983.51
2017-09-05T08:06:13.238Z,983.53
2017-09-05T08:07:13.282Z,983.51
2017-09-05T08:08:13.337Z,983.51
2017-09-05T08:09:13.472Z,983.53
2017-09-05T08:10:13.424Z,983.50
2017-09-05T08:11:13.465Z,983.54
2017-09-05T08:12:13.511Z,983.50
2017-09-05T08:13:13.556Z,983.56
2017-09-05T08:14:13.611Z,983.52
2017-09-05T08:15:13.674Z,983.52
2017-09-05T08:16:13.698Z,983.52
2017-09-05T08:17:13.748Z,983.56
2017-09-05T08:18:13.788Z,983.56
2017-09-05T08:19:13.836Z,983.57
2017-09-05T08:20:13.878Z,983.59
2017-09-05T08:21:13.927Z,983.58
2017-09-05T08:22:13.971Z,983.58
2017-09-05T08:23:14.020Z,983.58
2017-09-05T08:24:14.068Z,983.56
2017-09-05T08:25:14.113Z,983.58
2017-09-05T08:26:14.224Z,983.56
2017-09-05T08:27:14.202Z,983.59
2017-09-05T08:28:14.250Z,983.57
2017-09-05T08:29:14.296Z,983.59
2017-09-05T08:30:14.353Z,983.52
2017-09-05T08:31:14.387Z,983.53
2017-09-05T08:32:14.466Z,983.50
2017-09-05T08:33:14.485Z,983.51
2017-09-05T08:34:14.533Z,983.52
2017-09-05T08:35:14.577Z,983.49
2017-09-05T08:36:14.622Z,983.51
2017-09-05T08:37:14.672Z,983.49
2017-09-05T08:38:14.717Z,983.52
2017-09-05T08:39:14.779Z,983.56
2017-09-05T08:40:14.810Z,983.56
2017-09-05T08:41:14.853Z,983.53
2017-09-05T08:42:14.982Z,983.54
2017-09-05T08:43:14.945Z,983.55
2017-09-05T08:44:15.018Z,983.57
2017-09-05T08:45:15.039Z,983.54
2017-09-05T08:46:15.083Z,983.51
2017-09-05T08:47:15.132Z,983.48
2017-09-05T08:48:15.198Z,983.51
2017-09-05T08:49:15.230Z,983.48
2017-09-05T08:50:15.269Z,983.52
2017-09-05T08:51:15.358Z,983.50
2017-09-05T08:52:15.373Z,983.49
2017-09-05T08:53:15.413Z,983.51
2017-09-05T08:54:15.457Z,983.50
2017-09-05T08:55:15.506Z,983.52
2017-09-05T08:56:15.548Z,983.49
2017-09-05T08:57:15.596Z,983.51
2017-09-05T08:58:15.644Z,983.45
2017-09-05T08:59:15.689Z,983.51
2017-09-05T09:00:15.738Z,983.53
2017-09-05T09:01:15.787Z,983.50
2017-09-05T09:02:15.832Z,983.54
2017-09-05T09:03:15.876Z,983.54
2017-09-05T09:04:15.926Z,983.52
2017-09-05T09:05:16.028Z,983.52
2017-09-05T09:06:16.018Z,983.52
2017-09-05T09:07:16.097Z,983.48
2017-09-05T09:08:16.109Z,983.47
2017-09-05T09:09:16.188Z,983.45
2017-09-05T09:10:16.203Z,983.51
2017-09-05T09:11:16.255Z,983.52
2017-09-05T09:12:16.311Z,983.42
2017-09-05T09:13:16.356Z,983.44
2017-09-05T09:14:16.393Z,983.44
2017-09-05T09:15:16.435Z,983.51
2017-09-05T09:16:16.553Z,983.45
2017-09-05T09:17:16.528Z,983.45
2017-09-05T09:18:16.579Z,983.45
2017-09-05T09:19:16.623Z,983.41
2017-09-05T09:20:16.669Z,983.44
2017-09-05T09:21:16.737Z,983.44
2017-09-05T09:22:16.768Z,983.39
2017-09-05T09:23:16.812Z,983.42
2017-09-05T09:24:16.924Z,983.42
2017-09-05T09:25:16.906Z,983.45
2017-09-05T09:26:16.951Z,983.45
2017-09-05T09:27:16.999Z,983.44
2017-09-05T09:28:17.045Z,983.43
2017-09-05T09:29:17.091Z,983.41
2017-09-05T09:30:17.167Z,983.40
2017-09-05T09:31:17.185Z,983.33
2017-09-05T09:32:17.232Z,983.35
2017-09-05T09:33:17.286Z,983.41
2017-09-05T09:34:17.324Z,983.41
2017-09-05T09:35:17.372Z,983.40
2017-09-05T09:36:17.420Z,983.38
2017-09-05T09:37:17.466Z,983.40
2017-09-05T09:38:17.517Z,983.41
2017-09-05T09:39:17.569Z,983.42
2017-09-05T09:40:17.606Z,983.37
2017-09-05T09:41:17.653Z,983.43
2017-09-05T09:42:17.701Z,983.35
2017-09-05T09:43:17.747Z,983.39
2017-09-05T09:44:17.798Z,983.43
2017-09-05T09:45:17.850Z,983.39
2017-09-05T09:46:17.894Z,983.40
2017-09-05T09:47:17.942Z,983.36
2017-09-05T09:48:17.990Z,983.40
2017-09-05T09:49:18.026Z,983.45
2017-09-05T09:50:18.081Z,983.45
2017-09-05T09:51:18.121Z,983.43
2017-09-05T09:52:18.168Z,983.39
2017-09-05T09:53:18.215Z,983.36
2017-09-05T09:54:18.263Z,983.39
2017-09-05T09:55:18.307Z,983.38
2017-09-05T09:56:18.362Z,983.36
2017-09-05T09:57:18.401Z,983.40
2017-09-05T09:58:18.446Z,983.39
2017-09-05T09:59:18.491Z,983.35
2017-09-05T10:00:18.539Z,983.34
2017-09-05T10:01:18.587Z,983.36
2017-09-05T10:02:18.633Z,983.33
2017-09-05T10:03:18.685Z,983.32
2017-09-05T10:04:18.728Z,983.31
2017-09-05T10:05:18.772Z,983.31
2017-09-05T10:06:18.818Z,983.33
2017-09-05T10:07:18.863Z,983.35
2017-09-05T10:08:18.913Z,983.28
2017-09-05T10:09:18.961Z,983.29
2017-09-05T10:10:19.003Z,983.29
2017-09-05T10:11:19.055Z,983.26
2017-09-05T10:12:19.096Z,983.25
2017-09-05T10:13:19.145Z,983.25
2017-09-05T10:14:19.192Z,983.23
2017-09-05T10:15:19.284Z,983.27
2017-09-05T10:16:19.289Z,983.27
2017-09-05T10:17:19.330Z,983.26
2017-09-05T10:18:19.378Z,983.21
2017-09-05T10:19:19.423Z,983.22
2017-09-05T10:20:19.468Z,983.20
2017-09-05T10:21:19.516Z,983.20
2017-09-05T10:22:19.561Z,983.21
2017-09-05T10:23:19.610Z,983.21
2017-09-05T10:24:19.654Z,983.25
2017-09-05T10:25:19.700Z,983.23
2017-09-05T10:26:19.748Z,983.24
2017-09-05T10:27:19.798Z,983.24
2017-09-05T10:28:19.839Z,983.22
2017-09-05T10:29:19.890Z,983.21
2017-09-05T10:30:19.932Z,983.23
2017-09-05T10:31:19.981Z,983.22
2017-09-05T10:32:20.024Z,983.19
2017-09-05T10:33:20.133Z,983.20
2017-09-05T10:34:20.118Z,983.17
2017-09-05T10:35:20.165Z,983.16
2017-09-05T10:36:20.212Z,983.14
2017-09-05T10:37:20.260Z,983.12
2017-09-05T10:38:20.301Z,983.11
2017-09-05T10:39:20.350Z,983.12
2017-09-05T10:40:20.395Z,983.12
2017-09-05T10:41:20.453Z,983.10
2017-09-05T10:42:20.495Z,983.13
2017-09-05T10:43:20.540Z,983.11
2017-09-05T10:44:20.588Z,983.08
2017-09-05T10:45:20.724Z,983.06
2017-09-05T10:46:20.739Z,983.06
2017-09-05T10:47:21.592Z,983.07
2017-09-05T10:48:20.874Z,983.10
2017-09-05T10:49:20.898Z,983.09
2017-09-05T10:50:20.973Z,983.01
2017-09-05T10:51:21.029Z,983.00
2017-09-05T10:52:21.031Z,982.99
2017-09-05T10:53:21.134Z,983.04
2017-09-05T10:54:21.157Z,983.00
2017-09-05T10:55:21.207Z,982.99
2017-09-05T10:56:22.595Z,983.06
2017-09-05T10:57:21.278Z,983.04
2017-09-05T10:58:22.126Z,983.08
2017-09-05T10:59:22.649Z,983.00
2017-09-05T11:00:21.395Z,983.05
2017-09-05T11:01:21.467Z,983.05
2017-09-05T11:02:21.501Z,983.04
2017-09-05T11:03:21.570Z,983.07
2017-09-05T11:04:21.616Z,983.04
2017-09-05T11:05:21.658Z,983.07
2017-09-05T11:06:21.687Z,983.07
2017-09-05T11:07:21.765Z,983.06
2017-09-05T11:08:21.830Z,983.08
2017-09-05T11:09:21.841Z,983.00
2017-09-05T11:10:21.788Z,982.98
2017-09-05T11:11:21.834Z,983.03
2017-09-05T11:12:21.983Z,983.04
2017-09-05T11:13:22.028Z,983.04
2017-09-05T11:15:22.126Z,983.03
2017-09-05T11:16:22.633Z,983.01
2017-09-05T11:17:22.121Z,983.01
2017-09-05T11:18:22.156Z,983.01
2017-09-05T11:19:22.209Z,982.98
2017-09-05T11:20:22.349Z,982.99
2017-09-05T11:21:43.425Z,983.00
2017-09-05T11:22:22.436Z,983.00
2017-09-05T11:23:22.389Z,982.98
2017-09-05T11:24:22.541Z,982.98
2017-09-05T11:25:22.613Z,982.96
2017-09-05T11:26:22.642Z,982.94
2017-09-05T11:27:43.597Z,982.95
2017-09-05T11:28:22.619Z,982.97
2017-09-05T11:29:22.753Z,982.96
2017-09-05T11:30:22.829Z,982.97
2017-09-05T11:31:22.819Z,982.90
2017-09-05T11:32:22.914Z,982.91
2017-09-05T11:33:45.011Z,982.89
2017-09-05T11:34:23.024Z,982.85
2017-09-05T11:35:22.944Z,982.89
2017-09-05T11:36:23.092Z,982.89
2017-09-05T11:37:23.139Z,982.87
2017-09-05T11:38:23.153Z,982.87
2017-09-05T11:39:44.266Z,982.90
2017-09-05T11:40:23.281Z,982.87
2017-09-05T11:41:23.325Z,982.91
2017-09-05T11:42:23.376Z,982.86
2017-09-05T11:43:23.425Z,982.84
2017-09-05T11:44:23.467Z,982.83
2017-09-05T11:45:45.637Z,982.85
2017-09-05T11:46:23.553Z,982.86
2017-09-05T11:47:23.594Z,982.84
2017-09-05T11:48:23.653Z,982.86
2017-09-05T11:49:23.633Z,982.82
2017-09-05T11:50:23.756Z,982.83
2017-09-05T11:51:44.736Z,982.83
2017-09-05T11:52:23.810Z,982.79
2017-09-05T11:53:23.801Z,982.84
2017-09-05T11:54:23.911Z,982.81
2017-09-05T11:55:23.947Z,982.77
2017-09-05T11:56:23.995Z,982.77
2017-09-05T11:57:45.045Z,982.72
2017-09-05T11:58:24.007Z,982.72
2017-09-05T11:59:24.053Z,982.66
2017-09-05T12:00:24.108Z,982.72
2017-09-05T12:01:24.200Z,982.69
2017-09-05T12:02:24.216Z,982.66
2017-09-05T12:03:45.286Z,982.59
2017-09-05T12:04:24.289Z,982.65
2017-09-05T12:05:24.337Z,982.65
2017-09-05T12:06:24.381Z,982.64
2017-09-05T12:07:24.431Z,982.62
2017-09-05T12:08:24.477Z,982.61
2017-09-05T12:09:45.570Z,982.68
2017-09-05T12:10:24.662Z,982.62
2017-09-05T12:11:24.617Z,982.63
2017-09-05T12:12:24.660Z,982.64
2017-09-05T12:13:24.716Z,982.66
2017-09-05T12:14:24.791Z,982.65
2017-09-05T12:15:45.829Z,982.62
2017-09-05T12:16:24.944Z,982.67
2017-09-05T12:17:24.944Z,982.62
2017-09-05T12:18:24.941Z,982.63
2017-09-05T12:19:24.984Z,982.61
2017-09-05T12:20:25.038Z,982.56
2017-09-05T12:21:46.191Z,982.57
2017-09-05T12:22:25.127Z,982.59
2017-09-05T12:23:25.187Z,982.60
2017-09-05T12:24:25.246Z,982.58
2017-09-05T12:25:25.270Z,982.62
2017-09-05T12:26:25.317Z,982.60
2017-09-05T12:27:46.392Z,982.59
2017-09-05T12:28:25.412Z,982.62
2017-09-05T12:29:25.453Z,982.63
2017-09-05T12:30:25.502Z,982.62